< < Back
Terminal Aerodrome Forecast


Current Version              Previous Versions:   1  2  3  4  5  6  7  8  9  

Terminal Aerodrome Forecast

400
FTUS42 KGSP 292330
TAFAVL
TAF
KAVL 292330Z 3000/3024 16004KT P6SM FEW050 BKN250
     FM300900 VRB02KT 5SM BR SCT003 BKN250
      TEMPO 3009/3013 1/2SM FG OVC003
     FM301300 35005KT P6SM FEW030 BKN250
     FM301800 16006KT P6SM SCT050 BKN250=



Latest METAR

498
SAUS70 KWBC 300900 RRG
MTRAVL
METAR KAVL 300854Z AUTO 00000KT 10SM CLR 17/16 A3020 RMK AO2 SLP200
T01720156 58003


USA.gov is the U.S. government's official web portal to all federal, state and local government web resources and services.